»·PEaware :: UAL959 KSFO-KONT

UAL959 :: KSFO-KONT

FLIGHT INFORMATION

Flight Status: Arrived
Operator:
United Airlines
More flights by this operator :: More flights under this callsign
Pilot: Ben F. (13029)
Aircraft: AIRBUS A320
(A320)
More flights by this aircraft type
Origin: KSFO San Francisco Intl
United States
Destination: KONT Ontario Intl
United States
More flights between these airports :: More routes between these airports
Route: SSTIK4 LOSHN EHF ZIGGY7
File this flight plan on PilotEdge
Remarks: RMK / SIMBRIEF
Altitude:
(Current/Filed)
35,000ft
Speed:
(Current/Filed)
456kts
Departed: 17-Jul-20 07:25 PM
Arrived: 17-Jul-20 08:28 PM
Distance/Time
Traveled:
316nm/1:02
Distance/Time
To Go:
Arrived

Flight Plot

Page will automatically refresh every two minutes.

Flight plan parsing failed; only flown route is shown


Map Options




Map Legend


Flown Route
Filed Route
Departure Airport
Arrival Airport
Navaid (VOR, NDB)
Fix

Horizontal Profiles

Position Reports

Time Latitude Longitude Heading Altitude Ground
Speed
17-Jul-20 18:50 37.619723 -122.388268 26 32ft 0kts
17-Jul-20 18:52 37.619723 -122.388268 26 32ft 0kts
17-Jul-20 18:52 37.619723 -122.388268 26 32ft 0kts
17-Jul-20 18:53 37.619723 -122.388268 26 32ft 0kts
17-Jul-20 18:55 37.619723 -122.388268 26 32ft 0kts
17-Jul-20 18:55 37.619723 -122.388268 26 32ft 0kts
17-Jul-20 18:56 37.619723 -122.388268 26 32ft 0kts
17-Jul-20 18:57 37.619723 -122.388268 26 32ft 0kts
17-Jul-20 18:58 37.619723 -122.388268 26 32ft 0kts
17-Jul-20 18:59 37.619723 -122.388268 26 32ft 0kts
17-Jul-20 19:00 37.619723 -122.388268 26 32ft 0kts
17-Jul-20 19:01 37.619723 -122.388268 26 32ft 0kts
17-Jul-20 19:02 37.619723 -122.388268 26 32ft 0kts
17-Jul-20 19:03 37.619723 -122.388268 26 32ft 0kts
17-Jul-20 19:04 37.619723 -122.388268 26 32ft 0kts
17-Jul-20 19:05 37.619723 -122.388268 26 32ft 0kts
17-Jul-20 19:06 37.619723 -122.388268 26 32ft 0kts
17-Jul-20 19:07 37.619723 -122.388268 26 32ft 0kts
17-Jul-20 19:08 37.619723 -122.388268 26 32ft 0kts
17-Jul-20 19:09 37.619723 -122.388268 26 32ft 0kts
17-Jul-20 19:10 37.619722 -122.388268 26 32ft 0kts
17-Jul-20 19:11 37.619555 -122.388373 26 32ft 2kts
17-Jul-20 19:12 37.619125 -122.388304 300 32ft 0kts
17-Jul-20 19:13 37.619097 -122.388233 297 32ft 0kts
17-Jul-20 19:14 37.619097 -122.388233 297 32ft 0kts
17-Jul-20 19:15 37.619226 -122.388993 274 32ft 11kts
17-Jul-20 19:16 37.620066 -122.391353 298 32ft 0kts
17-Jul-20 19:17 37.621242 -122.391711 26 32ft 15kts
17-Jul-20 19:18 37.621716 -122.386943 117 32ft 16kts
17-Jul-20 19:19 37.619470 -122.381596 117 32ft 17kts
17-Jul-20 19:20 37.614498 -122.381061 208 32ft 23kts
17-Jul-20 19:21 37.609794 -122.384260 202 32ft 1kts
17-Jul-20 19:22 37.609131 -122.383490 125 32ft 0kts
17-Jul-20 19:23 37.609217 -122.382049 29 31ft 2kts
17-Jul-20 19:24 37.641054 -122.360955 15 1153ft 196kts
17-Jul-20 19:25 37.700660 -122.366922 329 3449ft 260kts
17-Jul-20 19:26 37.709359 -122.449164 229 6499ft 273kts
17-Jul-20 19:27 37.636845 -122.470856 183 9601ft 283kts
17-Jul-20 19:28 37.552669 -122.472979 181 10035ft 335kts
17-Jul-20 19:29 37.467231 -122.440379 130 10054ft 339kts
17-Jul-20 19:30 37.408238 -122.347870 130 10049ft 339kts
17-Jul-20 19:31 37.348499 -122.255076 130 10025ft 343kts
17-Jul-20 19:32 37.287962 -122.161459 130 9998ft 347kts
17-Jul-20 19:33 37.226931 -122.067347 130 10007ft 346kts
17-Jul-20 19:34 37.166134 -121.973855 130 10039ft 344kts
17-Jul-20 19:35 37.105693 -121.881185 130 10807ft 346kts
17-Jul-20 19:36 37.044190 -121.787182 130 13445ft 355kts
17-Jul-20 19:37 36.980763 -121.690497 129 15754ft 365kts
17-Jul-20 19:38 36.915343 -121.591062 129 17766ft 377kts
17-Jul-20 19:39 36.847821 -121.488735 129 19574ft 388kts
17-Jul-20 19:40 36.778234 -121.383601 130 21227ft 398kts
17-Jul-20 19:41 36.706395 -121.275409 130 22751ft 408kts
17-Jul-20 19:42 36.633223 -121.165570 130 24124ft 418kts
17-Jul-20 19:43 36.558134 -121.053231 130 25348ft 427kts
17-Jul-20 19:44 36.481102 -120.938356 130 26486ft 436kts
17-Jul-20 19:45 36.402863 -120.821060 130 27490ft 446kts
17-Jul-20 19:46 36.323188 -120.702068 130 28494ft 452kts
17-Jul-20 19:47 36.242275 -120.581669 130 29390ft 459kts
17-Jul-20 19:48 36.160371 -120.460209 130 30520ft 457kts
17-Jul-20 19:49 36.079248 -120.340349 131 31614ft 455kts
17-Jul-20 19:50 35.997648 -120.220224 131 32622ft 454kts
17-Jul-20 19:51 35.916374 -120.101002 130 33507ft 453kts
17-Jul-20 19:52 35.839829 -119.980455 118 34398ft 452kts
17-Jul-20 19:53 35.784823 -119.842436 116 34919ft 450kts
17-Jul-20 19:54 35.729716 -119.704385 116 34912ft 450kts
17-Jul-20 19:55 35.674187 -119.565895 116 34915ft 450kts
17-Jul-20 19:56 35.618598 -119.427822 116 34914ft 450kts
17-Jul-20 19:57 35.564043 -119.292881 117 34914ft 450kts
17-Jul-20 19:58 35.508776 -119.156747 117 34914ft 450kts
17-Jul-20 19:59 35.427601 -119.042980 142 34924ft 450kts
17-Jul-20 20:00 35.328727 -118.948899 142 34932ft 447kts
17-Jul-20 20:01 35.230624 -118.855802 143 34927ft 444kts
17-Jul-20 20:02 35.133637 -118.764082 143 35041ft 440kts
17-Jul-20 20:03 35.044123 -118.662860 131 34901ft 440kts
17-Jul-20 20:04 34.965109 -118.547273 130 32312ft 445kts
17-Jul-20 20:05 34.887053 -118.433544 130 30385ft 432kts
17-Jul-20 20:06 34.813863 -118.327278 131 28487ft 421kts
17-Jul-20 20:07 34.739875 -118.220113 131 26540ft 410kts
17-Jul-20 20:08 34.667573 -118.115708 131 24588ft 399kts
17-Jul-20 20:09 34.605368 -118.006606 120 22722ft 390kts
17-Jul-20 20:10 34.553445 -117.892894 120 20783ft 380kts
17-Jul-20 20:11 34.502969 -117.782743 120 18926ft 368kts
17-Jul-20 20:12 34.454135 -117.676481 120 17332ft 350kts
17-Jul-20 20:13 34.409348 -117.579221 120 16504ft 315kts
17-Jul-20 20:14 34.367218 -117.488155 120 14958ft 308kts
17-Jul-20 20:15 34.325526 -117.398235 120 13393ft 303kts
17-Jul-20 20:16 34.269213 -117.333181 163 11814ft 293kts
17-Jul-20 20:17 34.196939 -117.288063 152 10270ft 291kts
17-Jul-20 20:18 34.126923 -117.240696 152 8807ft 286kts
17-Jul-20 20:19 34.058207 -117.194040 152 7375ft 282kts
17-Jul-20 20:20 33.995917 -117.218449 255 5879ft 270kts
17-Jul-20 20:21 34.024318 -117.299284 302 5002ft 275kts
17-Jul-20 20:22 34.058312 -117.374392 266 5007ft 228kts
17-Jul-20 20:23 34.057105 -117.446065 268 4021ft 195kts
17-Jul-20 20:24 34.057081 -117.506474 268 2737ft 165kts
17-Jul-20 20:25 34.056928 -117.554934 270 1493ft 137kts
17-Jul-20 20:26 34.056897 -117.597185 270 946ft 52kts
17-Jul-20 20:27 34.057797 -117.599860 358 946ft 0kts
17-Jul-20 20:28 34.058994 -117.599187 86 946ft 15kts
17-Jul-20 20:29 34.059940 -117.596292 321 946ft 4kts
17-Jul-20 20:31 34.060126 -117.596540 307 946ft 0kts
17-Jul-20 20:32 34.060125 -117.596540 306 946ft 0kts
17-Jul-20 20:33 34.060125 -117.596540 306 946ft 0kts
17-Jul-20 20:34 34.060125 -117.596540 306 946ft 0kts
17-Jul-20 20:35 34.060125 -117.596540 306 946ft 0kts
17-Jul-20 20:36 34.060125 -117.596540 306 946ft 0kts

Navigation Log

Ident Type
Flight plan parsing failed, navigation log unavailable